Welcome to Northern Hawkes Bay. New Zealand.
PWS Header
      nz Flag



Hit Counter


W3C Valid W3C Valid logo


    Wairoa

Select any of the Stations below to visit their websites.










Historic Data from Weather Underground
Select the location of interest below. Wairoa is the default. Please have patience, this Data is slow to load in.
Northern Hawkes Bay Historical Data
Daily Summary for April 13, 2017 Units:  Metric    English   Both
« Previous Day
Next Day »
Daily Weekly Monthly Yearly Custom
  High: Low: Average:
Temperature: 21.0 °C 16.6 °C 18.3 °C
Dew Point: 18.5 °C 13.3 °C 16.9 °C
Humidity: 99% 65% 92%
Wind Speed: 41.7km/h 0.0km/h 7.9km/h
Wind Gust: 74.5km/h - -
Wind- - East
Pressure: 1013.4 hPa 990.7 hPa -
Precipitation: 19.8 mm    
Historical Graphs
 
 
Tabular Data for April 13, 2017
Time Temperature Dew Point Pressure Wind Wind Speed Wind Gust Humidity Rainfall Rate (Hourly) solar
00:03 17.1 °C 16.6 °C 1013.4 hPa Calm     97% 0.3 mm 0 W/m2
00:09 17.1 °C 16.6 °C 1013.4 hPa Calm     97% 0.3 mm 0 W/m2
00:15 17.1 °C 16.6 °C 1013.4 hPa Calm     97% 0.0 mm 0 W/m2
00:21 17.1 °C 16.6 °C 1013.4 hPa Calm     97% 0.0 mm 0 W/m2
00:27 17.1 °C 16.6 °C 1013.4 hPa Calm     97% 0.0 mm 0 W/m2
00:33 17.2 °C 16.7 °C 1013.4 hPa Calm     97% 0.3 mm 0 W/m2
00:39 17.2 °C 16.7 °C 1013.4 hPa Calm     97% 0.3 mm 0 W/m2
00:45 17.2 °C 16.7 °C 1013.1 hPa Calm     97% 0.3 mm 0 W/m2
00:57 17.2 °C 16.7 °C 1013.1 hPa Calm   6.1 km/h 97% 0.3 mm 0 W/m2
01:03 17.2 °C 16.7 °C 1012.8 hPa Calm     97% 0.3 mm 0 W/m2
01:09 17.2 °C 16.7 °C 1012.8 hPa Calm     97% 0.3 mm 0 W/m2
01:15 17.2 °C 16.7 °C 1013.1 hPa Calm   5.0 km/h 97% 0.3 mm 0 W/m2
01:21 17.2 °C 16.7 °C 1012.8 hPa Calm     97% 0.3 mm 0 W/m2
01:27 17.1 °C 16.6 °C 1012.8 hPa Calm     97% 0.3 mm 0 W/m2
01:33 17.1 °C 16.6 °C 1012.8 hPa Calm     97% 0.0 mm 0 W/m2
01:39 17.1 °C 16.6 °C 1012.8 hPa Calm     97% 0.0 mm 0 W/m2
01:45 17.1 °C 16.6 °C 1012.8 hPa Calm   5.0 km/h 97% 0.0 mm 0 W/m2
01:51 17.1 °C 16.6 °C 1012.4 hPa ENE 5.0 km/h 7.2 km/h 97% 0.0 mm 0 W/m2
01:57 17.1 °C 16.6 °C 1012.4 hPa Calm   7.2 km/h 97% 0.0 mm 0 W/m2
02:03 17.1 °C 16.6 °C 1012.1 hPa Calm   6.1 km/h 97% 0.0 mm 0 W/m2
02:09 17.1 °C 16.6 °C 1012.1 hPa Calm   6.1 km/h 97% 0.0 mm 0 W/m2
02:15 17.1 °C 16.6 °C 1012.1 hPa Calm   2.6 km/h 97% 0.0 mm 0 W/m2
02:21 17.0 °C 16.6 °C 1012.1 hPa Calm   2.6 km/h 97% 0.0 mm 0 W/m2
02:27 17.0 °C 16.6 °C 1012.1 hPa Calm     97% 0.0 mm 0 W/m2
02:33 16.9 °C 16.6 °C 1012.1 hPa Calm     98% 0.0 mm 0 W/m2
02:39 16.9 °C 16.6 °C 1011.7 hPa Calm     98% 0.0 mm 0 W/m2
02:45 16.8 °C 16.5 °C 1012.1 hPa Calm     98% 0.0 mm 0 W/m2
02:51 16.8 °C 16.5 °C 1011.7 hPa Calm     98% 0.0 mm 0 W/m2
02:57 16.7 °C 16.4 °C 1011.7 hPa Calm     98% 0.0 mm 0 W/m2
03:03 16.7 °C 16.4 °C 1011.7 hPa Calm     98% 0.0 mm 0 W/m2
03:09 16.7 °C 16.4 °C 1011.4 hPa Calm     98% 0.0 mm 0 W/m2
03:15 16.7 °C 16.4 °C 1011.7 hPa Calm     98% 0.0 mm 0 W/m2
03:21 16.7 °C 16.4 °C 1011.7 hPa Calm     98% 0.0 mm 0 W/m2
03:27 16.7 °C 16.4 °C 1011.7 hPa Calm     98% 0.0 mm 0 W/m2
03:33 16.7 °C 16.4 °C 1011.7 hPa Calm     98% 0.0 mm 0 W/m2
03:39 16.7 °C 16.4 °C 1011.7 hPa Calm     98% 0.0 mm 0 W/m2
03:45 16.6 °C 16.3 °C 1011.7 hPa Calm     98% 0.0 mm 0 W/m2
03:51 16.6 °C 16.3 °C 1011.4 hPa Calm     98% 0.0 mm 0 W/m2
03:57 16.6 °C 16.3 °C 1011.4 hPa Calm     98% 0.0 mm 0 W/m2
04:03 16.6 °C 16.3 °C 1011.7 hPa Calm     98% 0.0 mm 0 W/m2
04:09 16.6 °C 16.3 °C 1011.7 hPa Calm     98% 0.0 mm 0 W/m2
04:15 16.6 °C 16.3 °C 1011.7 hPa Calm     98% 0.0 mm 0 W/m2
04:21 16.6 °C 16.3 °C 1011.7 hPa Calm     98% 0.0 mm 0 W/m2
04:27 16.7 °C 16.4 °C 1011.4 hPa Calm     98% 0.0 mm 0 W/m2
04:33 16.8 °C 16.5 °C 1011.4 hPa Calm     98% 0.0 mm 0 W/m2
04:39 16.9 °C 16.6 °C 1011.4 hPa Calm     98% 0.0 mm 0 W/m2
04:45 17.0 °C 16.6 °C 1011.4 hPa Calm     97% 0.0 mm 0 W/m2
04:51 17.0 °C 16.6 °C 1011.4 hPa Calm     97% 0.0 mm 0 W/m2
04:57 17.2 °C 16.7 °C 1011.7 hPa Calm     97% 0.0 mm 0 W/m2
05:03 17.2 °C 16.7 °C 1011.4 hPa Calm     97% 0.0 mm 0 W/m2
05:09 17.2 °C 16.7 °C 1011.4 hPa Calm     97% 0.0 mm 0 W/m2
05:15 17.1 °C 16.6 °C 1011.4 hPa Calm     97% 0.0 mm 0 W/m2
05:21 17.0 °C 16.6 °C 1011.4 hPa Calm     97% 0.0 mm 0 W/m2
05:27 17.1 °C 16.6 °C 1011.4 hPa Calm     97% 0.0 mm 0 W/m2
05:33 17.1 °C 16.6 °C 1011.4 hPa Calm     97% 0.0 mm 0 W/m2
05:39 17.1 °C 16.6 °C 1011.1 hPa Calm     97% 0.0 mm 0 W/m2
05:45 17.1 °C 16.6 °C 1011.1 hPa Calm     97% 0.0 mm 0 W/m2
05:51 17.0 °C 16.6 °C 1010.7 hPa Calm     97% 0.0 mm 0 W/m2
05:57 17.0 °C 16.6 °C 1011.1 hPa Calm     97% 0.0 mm 0 W/m2
06:03 17.1 °C 16.6 °C 1010.7 hPa Calm   3.5 km/h 97% 0.0 mm 0 W/m2
06:09 17.2 °C 16.7 °C 1010.7 hPa East 3.5 km/h 7.2 km/h 97% 0.0 mm 0 W/m2
06:15 17.5 °C 17.1 °C 1010.7 hPa Calm   7.2 km/h 97% 0.0 mm 0 W/m2
06:21 17.5 °C 17.1 °C 1010.7 hPa Calm   7.2 km/h 97% 0.0 mm 0 W/m2
06:27 17.5 °C 17.1 °C 1010.7 hPa Calm   6.1 km/h 97% 0.0 mm 0 W/m2
06:33 17.3 °C 16.8 °C 1010.7 hPa Calm   3.5 km/h 97% 0.0 mm 0 W/m2
06:39 17.2 °C 16.7 °C 1010.7 hPa Calm   3.5 km/h 97% 0.0 mm 0 W/m2
06:45 17.2 °C 16.7 °C 1010.4 hPa Calm     97% 0.0 mm 1 W/m2
06:51 17.1 °C 16.6 °C 1010.4 hPa Calm     97% 0.0 mm 3 W/m2
06:57 17.1 °C 16.6 °C 1010.4 hPa Calm     97% 0.0 mm 4 W/m2
07:09 17.0 °C 16.6 °C 1010.0 hPa Calm     97% 0.0 mm 13 W/m2
07:15 17.1 °C 16.6 °C 1010.7 hPa Calm     97% 0.0 mm 16 W/m2
07:21 17.1 °C 16.6 °C 1010.7 hPa Calm   7.2 km/h 97% 0.0 mm 22 W/m2
07:27 17.1 °C 16.6 °C 1011.4 hPa Calm   7.2 km/h 97% 0.0 mm 27 W/m2
07:33 17.2 °C 16.7 °C 1011.4 hPa Calm     97% 0.0 mm 23 W/m2
07:39 17.2 °C 16.7 °C 1011.4 hPa Calm     97% 0.0 mm 22 W/m2
07:45 17.2 °C 16.7 °C 1011.4 hPa Calm     97% 0.0 mm 22 W/m2
07:51 17.2 °C 16.7 °C 1011.1 hPa Calm   2.6 km/h 97% 0.0 mm 32 W/m2
07:57 17.3 °C 16.8 °C 1011.1 hPa Calm   3.5 km/h 97% 0.0 mm 38 W/m2
08:03 17.4 °C 16.9 °C 1011.1 hPa Calm   3.5 km/h 97% 0.0 mm 45 W/m2
08:09 17.5 °C 17.1 °C 1011.1 hPa Calm     97% 0.0 mm 46 W/m2
08:15 17.6 °C 17.1 °C 1010.7 hPa Calm     97% 0.0 mm 48 W/m2
08:21 17.6 °C 17.1 °C 1010.7 hPa Calm     97% 0.0 mm 50 W/m2
08:27 17.6 °C 17.1 °C 1010.7 hPa Calm     97% 0.0 mm 46 W/m2
08:33 17.6 °C 17.1 °C 1011.1 hPa Calm     97% 0.0 mm 25 W/m2
08:39 17.7 °C 17.2 °C 1011.4 hPa Calm     97% 0.0 mm 38 W/m2
08:45 17.7 °C 17.2 °C 1011.1 hPa Calm     97% 0.0 mm 39 W/m2
08:51 17.8 °C 17.3 °C 1010.7 hPa Calm     97% 0.0 mm 51 W/m2
08:57 17.9 °C 17.4 °C 1011.1 hPa Calm     97% 0.0 mm 54 W/m2
09:03 18.1 °C 17.9 °C 1010.7 hPa Calm     99% 0.0 mm 61 W/m2
09:09 18.1 °C 17.9 °C 1010.7 hPa Calm     99% 0.0 mm 71 W/m2
09:15 18.2 °C 18.1 °C 1010.7 hPa Calm     99% 0.0 mm 71 W/m2
09:37 18.5 °C 18.3 °C 1010.7 hPa Calm   1.1 km/h 99% 0.3 mm 83 W/m2
09:43 18.4 °C 18.3 °C 1011.1 hPa Calm   1.1 km/h 99% 0.3 mm 74 W/m2
09:49 18.5 °C 18.3 °C 1010.7 hPa Calm     99% 0.3 mm 68 W/m2
09:55 18.5 °C 18.3 °C 1011.1 hPa Calm     99% 0.3 mm 74 W/m2
10:01 18.5 °C 18.3 °C 1011.1 hPa Calm     99% 0.3 mm 80 W/m2
10:07 18.5 °C 18.3 °C 1011.1 hPa Calm     99% 0.5 mm 81 W/m2
10:13 18.5 °C 18.3 °C 1010.7 hPa Calm     99% 0.5 mm 77 W/m2
10:19 18.5 °C 18.3 °C 1011.1 hPa Calm     99% 0.5 mm 64 W/m2
10:25 18.5 °C 18.3 °C 1011.1 hPa Calm     99% 0.5 mm 60 W/m2
10:31 18.4 °C 18.3 °C 1011.1 hPa Calm     99% 0.5 mm 61 W/m2
10:37 18.3 °C 18.2 °C 1011.4 hPa Calm     99% 1.0 mm 49 W/m2
10:43 18.2 °C 18.1 °C 1011.1 hPa Calm     99% 1.5 mm 35 W/m2
10:49 18.2 °C 18.1 °C 1011.1 hPa Calm     99% 2.3 mm 39 W/m2
10:55 18.1 °C 17.9 °C 1011.1 hPa Calm     99% 3.0 mm 39 W/m2
11:01 18.1 °C 17.9 °C 1010.7 hPa Calm   1.1 km/h 99% 3.6 mm 47 W/m2
11:06 17.9 °C 17.4 °C 1010.7 hPa NNE 5.0 km/h 7.2 km/h 97% 3.8 mm 64 W/m2
11:11 17.2 °C 16.7 °C 1010.7 hPa NE 13.4 km/h 15.8 km/h 97% 4.6 mm 66 W/m2
11:16 17.0 °C 16.6 °C 1010.4 hPa Calm   15.8 km/h 97% 4.3 mm 102 W/m2
11:21 17.0 °C 16.6 °C 1010.4 hPa Calm   15.8 km/h 97% 4.3 mm 114 W/m2
11:26 17.2 °C 16.7 °C 1010.0 hPa Calm   3.5 km/h 97% 4.3 mm 137 W/m2
11:31 17.3 °C 16.8 °C 1010.0 hPa Calm   1.1 km/h 97% 3.0 mm 137 W/m2
11:36 17.5 °C 17.1 °C 1010.0 hPa Calm     97% 3.3 mm 128 W/m2
11:46 17.8 °C 17.3 °C 1010.0 hPa Calm     97% 1.5 mm 111 W/m2
11:51 17.9 °C 17.4 °C 1010.0 hPa Calm   2.6 km/h 97% 1.5 mm 111 W/m2
11:56 17.8 °C 17.3 °C 1009.7 hPa Calm   2.6 km/h 97% 1.5 mm 108 W/m2
12:01 17.9 °C 17.4 °C 1010.0 hPa Calm   1.1 km/h 97% 1.3 mm 101 W/m2
12:06 18.1 °C 17.8 °C 1009.7 hPa Calm   2.6 km/h 98% 1.0 mm 89 W/m2
12:11 18.2 °C 17.9 °C 1010.0 hPa Calm   2.6 km/h 98% 0.3 mm 96 W/m2
12:16 18.4 °C 18.1 °C 1009.7 hPa Calm     98% 0.3 mm 89 W/m2
12:21 18.4 °C 18.1 °C 1009.7 hPa Calm     98% 0.3 mm 86 W/m2
12:26 18.4 °C 18.1 °C 1009.4 hPa Calm     98% 0.3 mm 91 W/m2
12:31 18.3 °C 18.0 °C 1009.4 hPa Calm     98% 0.3 mm 66 W/m2
12:36 18.2 °C 17.9 °C 1009.0 hPa Calm     98% 0.3 mm 66 W/m2
12:41 18.2 °C 17.9 °C 1009.0 hPa Calm     98% 0.3 mm 68 W/m2
12:46 18.2 °C 17.9 °C 1008.7 hPa Calm     98% 0.3 mm 60 W/m2
12:51 18.2 °C 18.1 °C 1008.7 hPa Calm     99% 0.3 mm 58 W/m2
12:56 18.3 °C 18.2 °C 1008.4 hPa Calm     99% 0.5 mm 61 W/m2
13:01 18.2 °C 18.1 °C 1008.4 hPa Calm     99% 0.5 mm 67 W/m2
13:06 18.1 °C 17.9 °C 1008.0 hPa Calm   3.5 km/h 99% 1.0 mm 66 W/m2
13:11 18.1 °C 17.9 °C 1008.0 hPa Calm   3.5 km/h 99% 1.3 mm 60 W/m2
13:16 18.0 °C 17.8 °C 1007.7 hPa SW 3.5 km/h 5.0 km/h 99% 1.3 mm 65 W/m2
13:21 18.0 °C 17.8 °C 1007.7 hPa SW 1.1 km/h 5.0 km/h 99% 1.3 mm 58 W/m2
13:31 18.0 °C 17.8 °C 1007.7 hPa Calm   2.6 km/h 99% 1.5 mm 63 W/m2
13:36 18.0 °C 17.8 °C 1007.7 hPa Calm     99% 1.3 mm 61 W/m2
13:46 17.9 °C 17.4 °C 1007.3 hPa ESE 8.7 km/h 18.3 km/h 97% 1.5 mm 46 W/m2
13:51 17.9 °C 17.4 °C 1007.3 hPa East 7.2 km/h 18.3 km/h 97% 1.5 mm 53 W/m2
13:56 17.9 °C 17.4 °C 1007.3 hPa East 6.1 km/h 15.8 km/h 97% 1.3 mm 52 W/m2
14:01 17.9 °C 17.4 °C 1007.0 hPa ESE 7.2 km/h 15.8 km/h 97% 1.3 mm 58 W/m2
14:06 17.9 °C 17.4 °C 1007.0 hPa SE 2.6 km/h 15.8 km/h 97% 1.3 mm 33 W/m2
14:11 17.8 °C 17.3 °C 1007.3 hPa ESE 12.2 km/h 15.8 km/h 97% 1.0 mm 18 W/m2
14:16 17.8 °C 17.3 °C 1006.7 hPa ESE 11.1 km/h 15.8 km/h 97% 1.3 mm 30 W/m2
14:21 17.7 °C 17.2 °C 1006.7 hPa ESE 9.7 km/h 15.8 km/h 97% 1.5 mm 42 W/m2
14:26 17.4 °C 16.9 °C 1006.7 hPa ESE 11.1 km/h 18.3 km/h 97% 1.8 mm 48 W/m2
14:31 17.3 °C 16.8 °C 1006.7 hPa ESE 2.6 km/h 18.3 km/h 97% 1.5 mm 47 W/m2
14:36 17.2 °C 16.7 °C 1006.3 hPa East 3.5 km/h 17.2 km/h 97% 1.8 mm 63 W/m2
14:41 17.2 °C 16.7 °C 1006.3 hPa ESE 8.7 km/h 14.8 km/h 97% 1.5 mm 70 W/m2
14:46 17.2 °C 16.7 °C 1006.0 hPa SE 1.1 km/h 14.8 km/h 97% 1.5 mm 83 W/m2
14:51 17.3 °C 16.8 °C 1005.6 hPa Calm   14.8 km/h 97% 1.5 mm 84 W/m2
14:56 17.2 °C 16.7 °C 1005.6 hPa SE 2.6 km/h 14.8 km/h 97% 1.5 mm 76 W/m2
15:01 17.1 °C 16.6 °C 1005.6 hPa Calm   13.4 km/h 97% 1.5 mm 54 W/m2
15:06 17.2 °C 16.7 °C 1005.6 hPa SE 3.5 km/h 13.4 km/h 97% 1.3 mm 48 W/m2
15:11 17.3 °C 16.8 °C 1005.3 hPa Calm   13.4 km/h 97% 1.5 mm 46 W/m2
15:16 17.3 °C 16.8 °C 1005.3 hPa SE 2.6 km/h 13.4 km/h 97% 1.3 mm 43 W/m2
15:21 17.5 °C 17.1 °C 1004.6 hPa Calm   6.1 km/h 97% 1.0 mm 75 W/m2
15:26 17.7 °C 17.2 °C 1004.6 hPa Calm   6.1 km/h 97% 0.5 mm 56 W/m2
15:31 17.8 °C 17.3 °C 1004.6 hPa Calm   3.5 km/h 97% 0.5 mm 36 W/m2
15:36 17.9 °C 17.4 °C 1004.6 hPa Calm   1.1 km/h 97% 0.3 mm 43 W/m2
15:41 17.9 °C 17.4 °C 1004.3 hPa Calm   1.1 km/h 97% 0.3 mm 47 W/m2
15:46 17.9 °C 17.4 °C 1003.9 hPa Calm     97% 0.3 mm 40 W/m2
15:51 18.0 °C 17.8 °C 1003.9 hPa Calm     99% 0.3 mm 29 W/m2
15:56 18.0 °C 17.8 °C 1003.9 hPa Calm     99% 0.3 mm 35 W/m2
16:01 18.0 °C 17.8 °C 1003.6 hPa Calm   6.1 km/h 99% 0.3 mm 44 W/m2
16:06 18.0 °C 17.8 °C 1003.3 hPa Calm   7.2 km/h 99% 0.3 mm 36 W/m2
16:11 18.2 °C 17.9 °C 1002.9 hPa ESE 13.4 km/h 28.0 km/h 98% 0.0 mm 52 W/m2
16:16 19.0 °C 17.8 °C 1002.6 hPa East 19.5 km/h 30.6 km/h 93% 0.3 mm 34 W/m2
16:21 19.2 °C 17.2 °C 1002.6 hPa East 12.2 km/h 30.6 km/h 88% 0.3 mm 33 W/m2
16:26 19.4 °C 17.0 °C 1002.3 hPa East 2.6 km/h 27.0 km/h 86% 0.3 mm 28 W/m2
16:31 19.5 °C 16.9 °C 1001.9 hPa ESE 12.2 km/h 23.3 km/h 85% 0.3 mm 25 W/m2
16:36 19.8 °C 17.1 °C 1001.9 hPa East 12.2 km/h 23.3 km/h 84% 0.5 mm 19 W/m2
16:41 19.7 °C 16.7 °C 1001.9 hPa East 7.2 km/h 23.3 km/h 83% 0.5 mm 13 W/m2
16:46 19.5 °C 16.7 °C 1001.9 hPa East 8.7 km/h 21.9 km/h 84% 1.0 mm 11 W/m2
16:51 19.1 °C 16.9 °C 1001.6 hPa East 8.7 km/h 25.6 km/h 87% 1.3 mm 17 W/m2
16:56 19.0 °C 17.2 °C 1001.2 hPa ESE 19.5 km/h 30.6 km/h 89% 1.5 mm 12 W/m2
17:01 18.9 °C 17.8 °C 1000.9 hPa ESE 14.8 km/h 30.6 km/h 93% 1.8 mm 7 W/m2
17:06 18.9 °C 17.9 °C 1001.2 hPa East 23.3 km/h 31.7 km/h 94% 1.8 mm 6 W/m2
17:11 18.8 °C 18.0 °C 1000.9 hPa East 20.9 km/h 42.8 km/h 95% 2.0 mm 6 W/m2
17:16 18.7 °C 17.9 °C 1000.9 hPa ESE 17.2 km/h 42.8 km/h 95% 1.8 mm 4 W/m2
17:21 18.7 °C 17.9 °C 1000.6 hPa East 15.8 km/h 42.8 km/h 95% 2.0 mm 4 W/m2
17:26 18.7 °C 17.9 °C 1000.2 hPa East 12.2 km/h 25.6 km/h 95% 2.0 mm 3 W/m2
17:31 18.7 °C 18.1 °C 999.9 hPa ESE 24.5 km/h 29.4 km/h 96% 2.0 mm 0 W/m2
17:36 18.7 °C 18.1 °C 999.9 hPa ESE 13.4 km/h 29.4 km/h 96% 1.8 mm 0 W/m2
17:41 18.8 °C 18.2 °C 999.5 hPa ESE 14.8 km/h 36.7 km/h 96% 2.0 mm 0 W/m2
17:46 18.9 °C 18.1 °C 999.2 hPa East 11.1 km/h 36.7 km/h 95% 2.0 mm 0 W/m2
17:51 18.8 °C 17.5 °C 998.9 hPa East 14.8 km/h 29.4 km/h 92% 2.0 mm 0 W/m2
17:56 18.9 °C 17.4 °C 998.5 hPa ESE 7.2 km/h 35.6 km/h 91% 1.8 mm 0 W/m2
18:01 18.8 °C 17.5 °C 998.2 hPa ESE 14.8 km/h 35.6 km/h 92% 1.8 mm 0 W/m2
18:06 18.8 °C 17.7 °C 997.5 hPa ESE 15.8 km/h 52.6 km/h 93% 2.0 mm 0 W/m2
18:11 18.8 °C 18.0 °C 997.2 hPa ESE 19.5 km/h 52.6 km/h 95% 2.3 mm 0 W/m2
18:16 18.9 °C 18.1 °C 997.2 hPa East 41.7 km/h 51.5 km/h 95% 3.0 mm 0 W/m2
18:21 19.0 °C 18.0 °C 996.8 hPa East 27.0 km/h 51.5 km/h 94% 3.3 mm 0 W/m2
18:26 18.9 °C 18.1 °C 996.2 hPa ESE 19.5 km/h 51.5 km/h 95% 3.6 mm 0 W/m2
18:31 18.9 °C 18.3 °C 996.2 hPa ESE 41.7 km/h 74.5 km/h 96% 4.8 mm 0 W/m2
18:36 18.9 °C 18.3 °C 996.2 hPa East 29.4 km/h 74.5 km/h 96% 5.1 mm 0 W/m2
18:41 18.8 °C 18.2 °C 996.2 hPa East 25.6 km/h 74.5 km/h 96% 5.1 mm 0 W/m2
18:46 18.7 °C 18.1 °C 995.5 hPa East 39.3 km/h 62.3 km/h 96% 5.3 mm 0 W/m2
18:51 18.8 °C 18.3 °C 994.8 hPa ESE 29.4 km/h 64.8 km/h 97% 6.3 mm 0 W/m2
18:56 18.8 °C 18.3 °C 994.8 hPa ESE 30.6 km/h 64.8 km/h 97% 6.3 mm 0 W/m2
19:01 18.8 °C 18.3 °C 994.8 hPa ESE 21.9 km/h 55.0 km/h 97% 6.3 mm 0 W/m2
19:06 18.9 °C 18.4 °C 994.5 hPa East 14.8 km/h 46.5 km/h 97% 6.3 mm 0 W/m2
19:11 19.3 °C 18.5 °C 994.1 hPa East 24.5 km/h 54.1 km/h 95% 5.6 mm 0 W/m2
19:16 19.6 °C 18.4 °C 994.1 hPa East 23.3 km/h 54.1 km/h 93% 5.1 mm 0 W/m2
19:21 19.9 °C 18.4 °C 993.8 hPa East 27.0 km/h 42.8 km/h 91% 4.6 mm 0 W/m2
19:26 20.0 °C 18.2 °C 992.8 hPa East 28.0 km/h 42.8 km/h 89% 4.3 mm 0 W/m2
19:31 20.3 °C 18.1 °C 993.1 hPa East 23.3 km/h 52.6 km/h 87% 3.3 mm 0 W/m2
19:36 20.6 °C 18.0 °C 992.8 hPa East 24.5 km/h 52.6 km/h 85% 3.0 mm 0 W/m2
19:41 20.6 °C 17.8 °C 992.8 hPa East 31.7 km/h 46.5 km/h 84% 2.3 mm 0 W/m2
19:46 20.7 °C 17.7 °C 992.8 hPa East 25.6 km/h 46.5 km/h 83% 1.3 mm 0 W/m2
19:51 20.6 °C 17.6 °C 992.8 hPa East 24.5 km/h 45.4 km/h 83% 1.0 mm 0 W/m2
19:56 20.5 °C 17.6 °C 992.8 hPa East 24.5 km/h 40.4 km/h 83% 0.5 mm 0 W/m2
20:01 20.6 °C 17.6 °C 992.4 hPa East 23.3 km/h 45.4 km/h 83% 0.5 mm 0 W/m2
20:06 20.6 °C 17.6 °C 992.4 hPa East 18.3 km/h 45.4 km/h 83% 0.3 mm 0 W/m2
20:10 20.4 °C 17.4 °C 992.4 hPa East 18.3 km/h 39.3 km/h 83% 0.3 mm 0 W/m2
20:15 20.5 °C 17.6 °C 992.1 hPa East 19.5 km/h 36.7 km/h 83% 0.3 mm 0 W/m2
20:20 20.7 °C 17.2 °C 991.8 hPa ENE 24.5 km/h 39.3 km/h 80% 0.3 mm 0 W/m2
20:25 20.7 °C 16.9 °C 991.8 hPa ENE 21.9 km/h 40.4 km/h 79% 0.3 mm 0 W/m2
20:30 21.0 °C 16.4 °C 991.4 hPa ENE 19.5 km/h 58.7 km/h 75% 0.0 mm 0 W/m2
20:48 20.7 °C 15.9 °C 991.1 hPa ENE 18.3 km/h 50.0 km/h 74% 0.0 mm 0 W/m2
20:53 20.7 °C 15.9 °C 991.1 hPa ENE 19.5 km/h 43.9 km/h 74% 0.0 mm 0 W/m2
20:58 20.6 °C 15.8 °C 991.1 hPa ENE 24.5 km/h 42.8 km/h 74% 0.0 mm 0 W/m2
21:03 20.5 °C 15.7 °C 990.7 hPa NE 18.3 km/h 42.8 km/h 74% 0.0 mm 0 W/m2
21:06 20.5 °C 15.7 °C 991.1 hPa NE 20.9 km/h 35.6 km/h 74% 0.0 mm 0 W/m2
21:11 20.8 °C 15.6 °C 991.4 hPa ENE 13.4 km/h 54.1 km/h 72% 0.0 mm 0 W/m2
21:16 20.8 °C 15.4 °C 991.1 hPa ENE 18.3 km/h 54.1 km/h 71% 0.0 mm 0 W/m2
21:21 20.8 °C 15.2 °C 991.4 hPa NE 28.0 km/h 40.4 km/h 70% 0.0 mm 0 W/m2
21:26 21.0 °C 14.4 °C 991.8 hPa NNE 21.9 km/h 52.6 km/h 66% 0.0 mm 0 W/m2
21:31 21.0 °C 14.4 °C 991.8 hPa NNE 18.3 km/h 52.6 km/h 66% 0.0 mm 0 W/m2
21:36 21.0 °C 14.2 °C 992.1 hPa NE 34.3 km/h 58.7 km/h 65% 0.0 mm 0 W/m2
21:41 21.0 °C 14.4 °C 992.1 hPa NE 27.0 km/h 60.2 km/h 66% 0.0 mm 0 W/m2
21:46 20.8 °C 14.4 °C 992.1 hPa NNE 29.4 km/h 60.2 km/h 67% 0.0 mm 0 W/m2
21:51 20.7 °C 14.6 °C 992.1 hPa NE 18.3 km/h 51.5 km/h 68% 0.0 mm 0 W/m2
21:56 20.7 °C 14.6 °C 992.4 hPa NE 20.9 km/h 56.2 km/h 68% 0.0 mm 0 W/m2
22:01 20.7 °C 14.6 °C 992.8 hPa NE 20.9 km/h 56.2 km/h 68% 0.0 mm 0 W/m2
22:17 20.7 °C 14.6 °C 992.8 hPa NNE 23.3 km/h 57.6 km/h 68% 0.0 mm 0 W/m2
22:22 20.7 °C 14.8 °C 993.1 hPa NNE 36.7 km/h 57.6 km/h 69% 0.0 mm 0 W/m2
22:27 20.7 °C 14.6 °C 993.1 hPa NNE 33.1 km/h 57.6 km/h 68% 0.0 mm 0 W/m2
22:37 20.6 °C 14.5 °C 993.8 hPa North 25.6 km/h 57.6 km/h 68% 0.0 mm 0 W/m2
22:42 20.6 °C 14.5 °C 994.1 hPa NNE 37.8 km/h 57.6 km/h 68% 0.0 mm 0 W/m2
22:47 20.6 °C 14.3 °C 994.5 hPa NNE 24.5 km/h 57.6 km/h 67% 0.0 mm 0 W/m2
22:52 20.5 °C 14.2 °C 994.8 hPa NNE 28.0 km/h 51.5 km/h 67% 0.0 mm 0 W/m2
22:57 20.5 °C 13.9 °C 995.1 hPa North 18.3 km/h 56.2 km/h 66% 0.0 mm 0 W/m2
23:02 20.4 °C 13.8 °C 995.5 hPa North 24.5 km/h 56.2 km/h 66% 0.0 mm 0 W/m2
23:07 20.3 °C 13.8 °C 995.8 hPa North 29.4 km/h 43.9 km/h 66% 0.0 mm 0 W/m2
23:12 20.3 °C 13.8 °C 995.8 hPa North 18.3 km/h 43.9 km/h 66% 0.0 mm 0 W/m2
23:22 20.1 °C 13.8 °C 996.2 hPa NNW 19.5 km/h 43.9 km/h 67% 0.0 mm 0 W/m2
23:27 20.0 °C 13.7 °C 996.5 hPa North 19.5 km/h 39.3 km/h 67% 0.0 mm 0 W/m2
23:32 20.1 °C 13.8 °C 996.5 hPa NNE 13.4 km/h 39.3 km/h 67% 0.0 mm 0 W/m2
23:37 20.0 °C 13.7 °C 996.5 hPa NNE 28.0 km/h 40.4 km/h 67% 0.0 mm 0 W/m2
23:42 20.0 °C 13.4 °C 996.8 hPa North 18.3 km/h 48.9 km/h 66% 0.0 mm 0 W/m2
23:57 20.1 °C 13.3 °C 997.5 hPa NNW 14.8 km/h 45.4 km/h 65% 0.0 mm 0 W/m2
Northern Hawkes Bay. New Zealand Historic Data
Compliments of Weather Underground - 2.25 mb